Tiempo atmosférico en la estación meteorológica de Lleida, Lleida (192 m.)



Fecha
DESCASC
Temp. máxima en grados centígrados (hora)
DESCASC
Temp. mínima en grados centígrados (hora)
DESCASC
Temp. media en grados centígrados
DESCASC
Racha de viento máxima en m/sg (hora)
DESCASC
Velocidad máxima media en intervalos de 10 minutos(hora)
DESCASC
Precipitaciones diarias en mm
DESCASC
Precipitaciones de 00:00 a 06:00 en mm
DESCASC
Precipitaciones de 06:00 a 12:00 en mm
DESCASC
Precipitaciones de 12:00 a 18:00 en mm
DESCASC
Precipitaciones de 18:00 a 24:00 en mm
DESCASC
22-08-2019 31 (17:50) 17.4 (07:30) 24.2 6.11 (13:40) 3.33 (15:10) -- 0 0 -- 0
21-08-2019 29.4 (15:40) 16.5 (07:40) 22.9 6.11 (14:50) 3.61 (14:50) 0 0 0 0 0
20-08-2019 24.7 (00:00) 18.5 (23:30) 21.6 6.94 (05:40) 4.17 (05:00) -- 0.4 16.8 3.6 --
19-08-2019 31.4 (17:00) 19.7 (07:30) 25.6 8.33 (20:10) 4.72 (20:10) 0 0 0 0 0
18-08-2019 37.9 (17:10) 21.3 (00:00) 29.6 -- (--) -- (--) -- -- 0 0 0
17-08-2019 36.5 (18:00) 19.9 (00:00) 28.2 7.5 (20:00) 4.17 (20:00) 0 0 0 0 0
16-08-2019 34.3 (18:30) 16.5 (00:00) 25.4 -- (--) -- (--) -- -- -- 0 0
15-08-2019 33.9 (18:40) 18.3 (00:00) 26.1 7.78 (15:20) 4.44 (15:10) 0 0 0 0 0
14-08-2019 33.8 (17:50) 14.2 (00:00) 24 7.5 (18:10) 4.44 (18:10) 0 0 0 0 0
13-08-2019 29.2 (19:00) 15.1 (00:00) 22.2 8.33 (14:10) 4.44 (14:10) -- 0 0 0 --
12-08-2019 30.2 (17:20) 19 (00:00) 24.6 9.44 (17:20) 5.28 (15:50) 0 0 0 0 0
11-08-2019 33.4 (17:20) 21.9 (00:00) 27.7 6.67 (23:30) 3.89 (23:30) -- 0 0 -- 0
10-08-2019 34.9 (18:30) 21.7 (00:00) 28.3 10.56 (00:20) 5.83 (00:20) -- -- 0 0 0
09-08-2019 39.7 (17:40) 21.9 (00:00) 30.8 8.33 (23:59) 5 (23:59) 0 0 0 0 0
08-08-2019 36.7 (19:00) 21.7 (00:00) 29.2 6.11 (12:00) 3.61 (14:10) 0 0 0 0 0
07-08-2019 32 (17:20) 23.4 (00:00) 27.7 6.67 (13:50) 3.89 (14:00) 0 0 0 0 0
06-08-2019 37.9 (19:00) 21.6 (00:00) 29.8 6.11 (14:20) 3.06 (19:50) 0 0 0 0 0
05-08-2019 37 (18:30) 21.2 (00:00) 29.1 5.83 (19:10) 3.33 (19:20) 0 0 0 0 0
04-08-2019 37 (17:10) 20.6 (00:00) 28.8 8.61 (18:10) 5.28 (18:10) 0 0 0 0 0
03-08-2019 37.3 (17:00) 19.6 (00:00) 28.4 8.89 (21:30) 5.28 (18:30) 0 0 0 0 0
02-08-2019 35.3 (18:40) 18.5 (00:00) 26.9 7.5 (20:30) 4.17 (19:40) 0 0 0 0 0
01-08-2019 34.8 (18:00) 19.2 (00:00) 27 6.39 (20:20) 2.78 (19:20) 0 0 0 0 0
31-07-2019 32.1 (18:10) 16 (00:00) 24 6.67 (21:20) 3.89 (02:30) 0 0 0 0 0
30-07-2019 32.1 (18:30) 18.6 (00:00) 25.3 7.78 (14:10) 4.44 (20:20) 0 0 0 0 0
29-07-2019 35.2 (17:50) 15.6 (00:00) 25.4 5 (13:20) 2.78 (21:50) 0 0 0 0 0
28-07-2019 30.5 (17:40) 15.2 (00:00) 22.8 10.28 (00:20) 6.11 (00:10) -- 0 0 0 --
27-07-2019 29.6 (16:00) 19.3 (00:00) 24.4 14.17 (19:50) 7.78 (17:40) 0 0 0 0 0
26-07-2019 31.3 (18:00) 23.5 (00:00) 27.4 10 (15:40) 5.28 (12:30) 0 0 0 0 0

Gráficas

Temp. máximas Temp. mínimas Temp. medias Precipitaciones Rachas de viento máximas Velocidades máximas media en intervalos de 10 minutos

Datos horarios

Fecha y hora oficial Temperatura (ºC) Velocidad del viento (km/h) Dirección del viento Racha (km/h) Dirección de racha Precipitación (mm) Presión (hPa) Tendencia (hPa) Humedad (%)
2019-08-24 23:00:00 24.8 0 Calma 11 Sudoeste 0 994.2 1.5 53
2019-08-24 22:00:00 26.6 7 Sudoeste 12 Sudoeste 0 993.7 1 47
2019-08-24 21:00:00 28.6 8 Sur 15 Sur 0 992.9 -0.1 39
2019-08-24 20:00:00 31.7 9 Sur 16 Sur 0 992.7 -0.7 34
2019-08-24 19:00:00 33.9 7 Sudoeste 15 Sudoeste 0 992.7 -1.3 31
2019-08-24 18:00:00 34.1 8 Oeste 15 Oeste 0 993 -1.3 29
2019-08-24 17:00:00 34.2 9 Sudoeste 19 Sudoeste 0 993.4 -1.5 29
2019-08-24 16:00:00 33.6 9 Oeste 17 Oeste 0 994 -1.5 29
2019-08-24 15:00:00 32.7 9 Sudoeste 18 Oeste 0 994.3 -1.7 35
2019-08-24 14:00:00 31.7 6 Oeste 13 Noroeste 0 994.9 -1.4 33
2019-08-24 13:00:00 30.4 5 Sudoeste 13 Sudoeste 0 995.5 -0.6 41
2019-08-24 12:00:00 28.1 5 Nordeste 12 Este 0 996 -0.1 50
2019-08-24 11:00:00 26.2 6 Este 14 Nordeste 0 996.3 0.5 57
2019-08-24 10:00:00 23.4 6 Nordeste 10 Nordeste 0 996.1 0.4 68
2019-08-24 09:00:00 20.8 4 Nordeste 7 Nordeste 0 996.1 0.6 78
2019-08-24 08:00:00 18.6 4 Nordeste 12 Este 0 995.8 0.2 86
2019-08-24 07:00:00 18.6 6 Nordeste 13 Nordeste 0 995.7 0 85
2019-08-24 06:00:00 18.9 6 Nordeste 9 Nordeste 0 995.5 -0.1 84
2019-08-24 05:00:00 19.5 3 Nordeste 8 Norte 0 995.6 -0.4 81
2019-08-24 04:00:00 20.2 3 Norte 8 Norte 0 995.7 0 78
2019-08-24 03:00:00 20.9 5 Norte 8 Norte 0 995.6 0 75
2019-08-24 02:00:00 21.4 4 Nordeste 10 Norte 0 996 0.8 73
2019-08-24 01:00:00 22.1 6 Norte 9 Nordeste 0 995.7 0.9 71
2019-08-24 00:00:00 22.7 6 Nordeste 11 Nordeste 0 995.6 1.5 68
2019-08-23 23:00:00 24.4 4 Oeste 11 Sur 0 995.2 1.5 58
2019-08-23 22:00:00 25.8 5 Sudoeste 9 Sudoeste 0 994.8 1 54
2019-08-23 21:00:00 27.8 4 Sur 17 Sudoeste 0 994.1 0 51
2019-08-23 20:00:00 31.9 5 Sudoeste 10 Oeste 0 993.7 -0.8 32
2019-08-23 19:00:00 32.9 4 Oeste 15 Noroeste 0 993.8 -1.2 26
2019-08-23 18:00:00 33.1 8 Noroeste 16 Oeste 0 994.1 -1.7 28
2019-08-23 17:00:00 33.4 5 Noroeste 13 Noroeste 0 994.5 -1.8 25
2019-08-23 16:00:00 32.6 8 Noroeste 16 Oeste 0 995 -1.9 27
2019-08-23 15:00:00 31.9 7 Oeste 14 Oeste 0 995.8 -1.6 30
2019-08-23 14:00:00 30.8 6 Sudoeste 13 Oeste 0 996.3 -1.5 32
2019-08-23 13:00:00 29.2 5 Sudoeste 12 Sudoeste 0 996.9 -0.9 45
2019-08-23 12:00:00 27.3 6 Sudoeste 12 Sudoeste 0 997.4 -0.1 55
2019-08-23 11:00:00 25.7 3 Sur 10 Este 0 997.8 0.5 57
2019-08-23 10:00:00 23 6 Nordeste 11 Nordeste 0 997.8 0.9 69
2019-08-23 09:00:00 20.7 5 Nordeste 11 Nordeste 0 997.5 0.6 81
2019-08-23 08:00:00 18.8 4 Nordeste 8 Nordeste 0 997.3 0.1 91
2019-08-23 07:00:00 18.5 5 Nordeste 10 Nordeste 0 996.9 -0.4 91
2019-08-23 06:00:00 18.8 4 Nordeste 7 Nordeste 0 996.9 -0.4 90
2019-08-23 05:00:00 19.3 5 Nordeste 7 Nordeste 0 997.2 0 88
2019-08-23 04:00:00 19.8 6 Nordeste 9 Norte 0 997.3 0.2 85
2019-08-23 03:00:00 20.2 6 Nordeste 12 Norte 0 997.3 0.3 83
2019-08-23 02:00:00 20.6 7 Norte 13 Nordeste 0 997.2 0.6 81
2019-08-23 01:00:00 20.8 7 Nordeste 14 Nordeste 0 997.1 1 79
2019-08-23 00:00:00 21.4 8 Nordeste 14 Nordeste 0 997 1.9 75
2019-08-22 23:00:00 23 4 Norte 13 Este 0 996.6 1.8 67
2019-08-22 22:00:00 24.2 6 Este 10 Este 0 996.1 1.3 56
2019-08-22 21:00:00 26.9 4 Norte 6 Noroeste 0 995.1 -0.1 46
2019-08-22 20:00:00 30.6 4 Oeste 9 Noroeste 0 994.8 -0.7 33
2019-08-22 19:00:00 30.9 6 Sudoeste 13 Oeste 0 994.8 -1.3 35
2019-08-22 18:00:00 30.9 6 Sudoeste 17 Sudoeste 0 995.2 -1.5 35
2019-08-22 17:00:00 30.7 6 Oeste 18 Sudoeste 0 995.5 -1.7 35
2019-08-22 16:00:00 29.7 11 Sudoeste -- -- -- 996.1 -1.6 40
2019-08-22 15:00:00 28.9 9 Oeste 20 Oeste 0 996.7 -1.4 42
2019-08-22 14:00:00 27.2 10 Sudoeste 22 Oeste 0 997.2 -0.9 49
2019-08-22 13:00:00 25.6 11 Oeste 21 Oeste 0 997.7 -0.5 51
2019-08-22 12:00:00 24.2 9 Sudoeste 16 Oeste 0 998.1 0.2 58
2019-08-22 11:00:00 22.4 9 Sudoeste 17 Sudoeste 0 998.1 0.7 62
2019-08-22 10:00:00 20.7 8 Sudoeste 15 Sudoeste 0 998.2 1.4 70
2019-08-22 09:00:00 19.1 7 Sudoeste 12 Sudoeste 0 997.9 1.5 80
2019-08-22 08:00:00 17.5 4 Sudoeste 15 Oeste 0 997.4 1.3 85
2019-08-22 07:00:00 17.7 7 Sudoeste 16 Sudoeste 0 996.8 1 87
2019-08-22 06:00:00 18.9 10 Sudoeste 13 Sudoeste 0 996.4 0.9 92
2019-08-22 05:00:00 19.9 4 Sudoeste 8 Oeste 0 996.1 0.1 92
2019-08-22 04:00:00 20.5 5 Oeste 8 Este 0 995.8 -0.5 90
2019-08-22 03:00:00 21 5 Nordeste 8 Norte 0 995.5 -0.6 87
2019-08-22 02:00:00 21.5 5 Nordeste 9 Norte 0 996 0.3 86
2019-08-22 01:00:00 22.1 4 Norte 7 Norte 0 996.3 0.6 83
2019-08-22 00:00:00 22.8 3 Norte 6 Nordeste 0 996.1 1.4 80
2019-08-21 23:00:00 23.5 3 Norte 5 Norte 0 995.7 1.4 77
2019-08-21 22:00:00 23.9 2 Sur 8 Sur 0 995.7 1.8 73
2019-08-21 21:00:00 24.7 6 Sur 11 Sur 0 994.7 0.5 67
2019-08-21 20:00:00 26.1 4 Noroeste 10 Noroeste 0 994.3 -0.1 59
2019-08-21 19:00:00 26.5 6 Noroeste 9 Oeste 0 993.9 -0.8 58
2019-08-21 18:00:00 27.1 6 Noroeste 12 Oeste 0 994.2 -1.4 54
2019-08-21 17:00:00 27.9 7 Oeste 15 Sudoeste 0 994.4 -1.8 53
2019-08-21 16:00:00 28.4 10 Oeste 19 Oeste 0 994.7 -2.3 49
2019-08-21 15:00:00 28.1 9 Sudoeste 22 Oeste 0 995.6 -2 52
2019-08-21 14:00:00 26.9 11 Sudoeste 21 Sur 0 996.2 -1.9 60
2019-08-21 13:00:00 25.4 9 Oeste 18 Oeste 0 997 -1.2 62
2019-08-21 12:00:00 23.8 7 Sudoeste 17 Oeste 0 997.6 -0.7 70
2019-08-21 11:00:00 22.1 6 Sudoeste 12 Sudoeste 0 998.1 -0.1 76
2019-08-21 10:00:00 19.6 7 Oeste 13 Sudoeste 0 998.2 0 88
2019-08-21 09:00:00 18 8 Sudoeste 12 Sudoeste 0 998.3 0.2 95
2019-08-21 08:00:00 16.8 3 Sur 6 Sur 0 998.2 -0.1 96
2019-08-21 07:00:00 16.9 3 Sudeste 6 Sur 0 998.2 -0.1 95
2019-08-21 06:00:00 17.2 3 Sudoeste 7 Sudoeste 0 998.1 -0.4 96
2019-08-21 05:00:00 17.5 2 Este 9 Nordeste 0 998.3 -0.3 94
2019-08-21 04:00:00 17.7 3 Sur 10 Nordeste 0 998.3 -0.4 95
2019-08-21 03:00:00 17.7 5 Este 6 Nordeste 0 998.5 -0.3 95
2019-08-21 02:00:00 17.9 4 Nordeste 8 Nordeste 0 998.6 0.1 94
2019-08-21 01:00:00 18.2 3 Norte 7 Norte 0 998.7 0.6 92
2019-08-21 00:00:00 18.6 4 Norte 7 Norte 0 998.8 1 92
2019-08-20 23:00:00 18.7 0 Calma -- -- -- 998.5 1.1 90
2019-08-20 22:00:00 19.5 0 Calma 8 Sudoeste 0 998.1 1 85
2019-08-20 21:00:00 20.5 5 Sudoeste 14 Sudoeste 0 997.8 0.5 81
2019-08-20 20:00:00 22.2 9 Sur 17 Sudoeste 0 997.4 -0.3 74
2019-08-20 19:00:00 23.4 9 Sur 18 Sudoeste 0 997.1 -0.7 69
2019-08-20 18:00:00 23.5 9 Sudoeste 16 Sur 0 997.3 -0.8 69
2019-08-20 17:00:00 22.5 10 Sudoeste 17 Sudoeste 0 997.7 -0.1 74
2019-08-20 16:00:00 20.9 9 Sudoeste 15 Oeste 0 997.8 -0.2 84
2019-08-20 15:00:00 20.3 10 Sudoeste 17 Oeste 0 998.1 0.4 89
2019-08-20 14:00:00 19 7 Oeste 17 Sudoeste 1.2 997.8 0.4 93
2019-08-20 13:00:00 18.8 8 Oeste 17 Sudoeste 2.4 998 1.4 95
2019-08-20 12:00:00 18.8 7 Sudoeste 12 Sudoeste 3.2 997.7 2.4 95
2019-08-20 11:00:00 18.7 4 Sudoeste 11 Norte 2.4 997.4 2.7 93
2019-08-20 10:00:00 18.9 5 Noroeste 17 Oeste 5 996.6 2.6 94
2019-08-20 09:00:00 19.2 7 Oeste 11 Sudoeste 0 995.3 1.6 94
2019-08-20 08:00:00 18.9 3 Norte 17 Norte 1.6 994.7 1.4 93
2019-08-20 07:00:00 19.1 8 Nordeste 24 Norte 4.6 994 1.1 89
2019-08-20 06:00:00 20.5 11 Noroeste 25 Noroeste 0.4 993.7 0.8 87
2019-08-20 05:00:00 22.4 15 Oeste 22 Oeste 0 993.3 0.1 74
2019-08-20 04:00:00 23.1 3 Nordeste 17 Sudeste 0 992.9 -0.4 78
2019-08-20 03:00:00 24 5 Norte 12 Noroeste 0 992.9 -0.5 74
2019-08-20 02:00:00 24.4 3 Noroeste 9 Oeste 0 993.2 0.1 74
2019-08-20 01:00:00 24.6 4 Oeste 7 Oeste 0 993.3 0.5 74
2019-08-20 00:00:00 24.7 3 Sudoeste 10 Sudoeste 0 993.4 1.3 74
2019-08-19 23:00:00 25.4 5 Sudoeste 10 Sudoeste 0 993.1 1.3 70
2019-08-19 22:00:00 25.9 6 Oeste 15 Sudoeste 0 992.8 1.6 66
2019-08-19 21:00:00 26.4 10 Sudoeste 30 Sudoeste 0 992.1 0.8 64
2019-08-19 20:00:00 28.5 14 Sudoeste 27 Sudoeste 0 991.8 0 57
2019-08-19 19:00:00 30.1 4 Noroeste 13 Nordeste 0 991.2 -1.1 46
2019-08-19 18:00:00 30.4 5 Norte 15 Noroeste 0 991.3 -1.7 44
2019-08-19 17:00:00 31.2 8 Noroeste 17 Este 0 991.8 -1.5 41
2019-08-19 16:00:00 30.9 7 Nordeste 15 Norte 0 992.3 -1.4 41
2019-08-19 15:00:00 30.2 5 Sudeste 15 Oeste 0 993 -0.9 41
2019-08-19 14:00:00 28.1 5 Nordeste 13 Sudoeste 0 993.3 -0.7 45
2019-08-19 13:00:00 26.9 6 Sur 16 Sudoeste 0 993.7 0.3 46
2019-08-19 12:00:00 24.7 6 Sur 14 Sudoeste 0 993.9 0.7 53
2019-08-19 11:00:00 22.8 9 Sudoeste 19 Sur 0 994 1.7 57
2019-08-19 10:00:00 22.1 13 Sudoeste 22 Sur 0 993.4 1.5 59
2019-08-19 09:00:00 21 10 Sudoeste 20 Sur 0 993.2 1.7 66
2019-08-19 08:00:00 20 9 Sur 18 Sur 0 992.3 1.3 70
2019-08-19 07:00:00 20.4 7 Sur 15 Sur 0 991.9 1.2 70
2019-08-19 06:00:00 21.1 8 Sudoeste 15 Sudoeste 0 991.5 1.1 72
2019-08-19 05:00:00 21.9 11 Sudoeste 19 Sur 0 991 1 69
2019-08-19 04:00:00 23.4 9 Sur 15 Sur 0 990.7 0.9 64
2019-08-19 03:00:00 24.2 6 Sur 14 Sur 0 990.4 1.6 66
2019-08-19 02:00:00 24 3 Este 9 Norte 0 990 1.7 64
2019-08-19 01:00:00 24.7 6 Norte 13 Nordeste 0 989.8 2.3 63
2019-08-19 00:00:00 25.9 6 Norte 10 Norte 0 988.8 2.6 64
2019-08-18 23:00:00 26.8 3 Sudoeste 13 Sur 0 988.3 2.6 58
2019-08-18 22:00:00 28.1 6 Sudoeste 22 Sudoeste 0 987.5 1.9 53
2019-08-18 21:00:00 29.9 8 Sur 17 Sudoeste 0 986.2 0.4 47
2019-08-18 20:00:00 32.9 10 Sur 26 Sur 0 985.7 -0.4 39
2019-08-18 19:00:00 34.9 14 Sur 25 Sur 0 985.6 -1.1 38
2019-08-18 18:00:00 36.5 6 Este 12 Nordeste 0 985.8 -1.6 27
2019-08-18 17:00:00 37.6 6 Este 14 Este 0 986.1 -2.1 28
2019-08-18 16:00:00 36.5 5 Nordeste 14 Nordeste 0 986.7 -2.2 30
2019-08-18 15:00:00 34.9 6 Este 12 Sudeste 0 987.4 -2 39
2019-08-18 14:00:00 33.3 8 Nordeste 16 Este 0 988.2 -0.9 44
2019-08-18 13:00:00 31.8 8 Este 20 Este 0 988.9 -0.6 48
2019-08-18 12:00:00 30.8 7 Nordeste 18 Este 0 989.4 0.2 52
2019-08-18 11:00:00 28.8 10 Nordeste 24 Nordeste 0 989.1 0.1 59
2019-08-18 10:00:00 26.5 13 Nordeste 25 Este 0 989.5 0.8 66
2019-08-18 09:00:00 24.3 12 Nordeste 21 Este 0 989.2 0.4 72
2019-08-18 08:00:00 21.9 8 Nordeste 16 Nordeste 0 989 -0.1 81
2019-08-18 07:00:00 21.5 9 Nordeste 21 Nordeste 0 988.7 -0.8 81
2019-08-18 06:00:00 21.7 10 Nordeste -- -- -- 988.8 -0.8 79
2019-08-18 05:00:00 21.9 11 Nordeste 19 Este 0 989.1 -0.7 77
2019-08-18 04:00:00 22 8 Nordeste 17 Nordeste 0 989.5 -0.5 77
2019-08-18 03:00:00 22.1 8 Nordeste 15 Nordeste 0 989.6 -0.4 79
2019-08-18 02:00:00 22.5 8 Nordeste 18 Nordeste 0 989.8 0.1 78
2019-08-18 01:00:00 23.3 8 Nordeste -- -- -- 990 0.8 76
2019-08-18 00:00:00 24.2 6 Nordeste 13 Nordeste 0 990 1.4 74
2019-08-17 23:00:00 25.3 8 Nordeste 14 Nordeste 0 989.7 1.3 70
2019-08-17 22:00:00 27.3 6 Sudeste 12 Sudeste 0 989.2 0.6 55
2019-08-17 21:00:00 28.6 10 Sur 24 Sudoeste 0 988.6 -0.2 52
2019-08-17 20:00:00 31.4 15 Sur 27 Sur 0 988.4 -0.5 47
2019-08-17 19:00:00 34 14 Sudoeste 26 Sudoeste 0 988.6 -1.1 42
2019-08-17 18:00:00 36.5 12 Sur 22 Sur 0 988.8 -1.7 37
2019-08-17 17:00:00 35.8 7 Norte 14 Sur 0 988.9 -2.3 37
2019-08-17 16:00:00 35.8 6 Sur 16 Sudeste 0 989.7 -2.4 37
2019-08-17 15:00:00 34.1 7 Este 16 Nordeste 0 990.5 -2.2 40
2019-08-17 14:00:00 33.2 5 Nordeste 15 Este 0 991.2 -1.8 43
2019-08-17 13:00:00 31.8 5 Este 17 Sur 0 992.1 -0.9 44
2019-08-17 12:00:00 30.1 4 Sudeste 11 Oeste 0 992.7 -0.2 49
2019-08-17 11:00:00 28.2 2 Sur 12 Nordeste 0 993 0.4 53
2019-08-17 10:00:00 25.6 7 Norte 13 Norte 0 993 0.6 63
2019-08-17 09:00:00 23.2 8 Nordeste 13 Nordeste 0 992.9 0.5 71
2019-08-17 08:00:00 20.7 5 Nordeste 10 Nordeste 0 992.6 0 81
2019-08-17 07:00:00 19.9 6 Nordeste 13 Nordeste 0 992.4 -0.2 83
2019-08-17 06:00:00 20.1 8 Nordeste 13 Nordeste 0 992.4 -0.3 81
2019-08-17 05:00:00 20.5 9 Nordeste 14 Nordeste 0 992.6 -0.3 79
2019-08-17 04:00:00 20.8 7 Nordeste 13 Nordeste 0 992.6 -0.3 79
2019-08-17 03:00:00 21.5 7 Nordeste 11 Nordeste 0 992.7 0.1 78
2019-08-17 02:00:00 22.3 6 Nordeste 12 Nordeste 0 992.9 0.7 75
2019-08-17 01:00:00 23 6 Nordeste 13 Nordeste 0 992.9 1.1 73
2019-08-17 00:00:00 24.3 7 Nordeste 12 Norte 0 992.6 1.6 67
2019-08-16 23:00:00 25.9 4 Sudoeste 11 Sudeste 0 992.2 1.7 59
2019-08-16 22:00:00 27 5 Sur 18 Sur 0 991.8 1.2 53
2019-08-16 21:00:00 28.7 10 Sudoeste 22 Sur 0 991 -0.1 50
2019-08-16 20:00:00 31.9 12 Sur 25 Sudoeste 0 990.5 -1.3 44
2019-08-16 19:00:00 34.2 6 Sudoeste 14 Oeste 0 990.6 -1.9 34
2019-08-16 18:00:00 34.2 9 Oeste 17 Oeste 0 991.1 -2.3 33
2019-08-16 17:00:00 33.9 8 Oeste 17 Sudoeste 0 991.8 -2.6 31
2019-08-16 16:00:00 33 6 Sudoeste 17 Oeste 0 992.5 -2.8 34
2019-08-16 15:00:00 31.8 10 Oeste 17 Oeste 0 993.4 -2.5 34
2019-08-16 14:00:00 29.8 6 Sudoeste 14 Sur 0 994.4 -1.9 35
2019-08-16 13:00:00 28.2 7 Sudoeste 13 Sudoeste 0 995.3 -- 32
2019-08-16 12:00:00 26.7 4 Sudeste 12 Sudeste 0 995.9 -- 34
2019-08-16 11:00:00 24.8 6 Sur 10 Sur 0 996.3 -- 39
2019-08-16 10:00:00 21.9 6 Sudoeste -- -- -- -- -- 50
2019-08-16 09:00:00 20.2 6 Sudoeste 8 Sudoeste 0 -- -- 53
2019-08-16 08:00:00 17.7 6 Noroeste 13 Oeste 0 -- -- 61
2019-08-16 07:00:00 16.6 6 Sudoeste 10 Sudoeste 0 -- -- 70
2019-08-16 06:00:00 17.8 4 Sur 8 Sudoeste 0 -- -- 63
2019-08-16 05:00:00 18.5 6 Sudoeste 10 Sur 0 -- -- 61
2019-08-16 04:00:00 20.2 8 Oeste 10 Oeste 0 995.3 -0.2 51
2019-08-16 03:00:00 20.6 6 Oeste 9 Oeste 0 995.6 0.7 51
2019-08-16 02:00:00 22.7 4 Noroeste -- -- -- 995.8 1.4 43
2019-08-16 01:00:00 24.2 6 Noroeste 12 Noroeste 0 995.5 1.9 39
2019-08-16 00:00:00 25.1 6 Oeste 12 Sudoeste 0 994.9 2.2 46
2019-08-15 23:00:00 26.3 8 Oeste 17 Sur 0 994.4 1.9 35
2019-08-15 22:00:00 26.7 7 Noroeste 11 Noroeste 0 993.6 1.4 33
2019-08-15 21:00:00 29.2 4 Sudoeste 15 Sudoeste 0 992.7 0.4 31
2019-08-15 20:00:00 32.5 10 Oeste 21 Oeste 0 992.5 -0.3 23
2019-08-15 19:00:00 33.6 13 Oeste 24 Oeste 0 992.2 -1.3 25
2019-08-15 18:00:00 33.4 10 Oeste 19 Noroeste 0 992.3 -1.8 33
2019-08-15 17:00:00 33.3 12 Sudoeste 21 Oeste 0 992.8 -1.8 34
2019-08-15 16:00:00 32.3 12 Oeste 28 Noroeste 0 993.5 -1.7 36
2019-08-15 15:00:00 32.3 13 Oeste 27 Oeste 0 994.1 -1.8 33
2019-08-15 14:00:00 31 9 Sudoeste 24 Sudoeste 0 994.6 -1.7 41
2019-08-15 13:00:00 29.7 11 Sur 23 Sudoeste 0 995.2 -1.2 45
2019-08-15 12:00:00 26.6 10 Sudoeste 18 Sur 0 995.9 -0.3 52
2019-08-15 11:00:00 25.2 10 Sudoeste 18 Sudoeste 0 996.3 0.6 55
2019-08-15 10:00:00 23.6 10 Oeste 17 Sudoeste 0 996.4 1.5 60
2019-08-15 09:00:00 21.9 7 Oeste 15 Oeste 0 996.2 1.9 68
2019-08-15 08:00:00 18.7 5 Sudoeste 9 Sudoeste 0 995.7 1.6 88
2019-08-15 07:00:00 18.6 3 Oeste 8 Sudoeste 0 994.9 0.6 88
2019-08-15 06:00:00 19.7 4 Nordeste 7 Nordeste 0 994.3 0 84
2019-08-15 05:00:00 20.3 5 Nordeste 11 Nordeste 0 994.1 -0.3 82
2019-08-15 04:00:00 20.8 7 Nordeste 12 Nordeste 0 994.3 0.1 80
2019-08-15 03:00:00 21.4 8 Nordeste 15 Nordeste 0 994.3 0.5 77
2019-08-15 02:00:00 22 10 Nordeste 16 Nordeste 0 994.4 1.3 73
2019-08-15 01:00:00 22.4 7 Nordeste 12 Norte 0 994.2 1.6 67
2019-08-15 00:00:00 24 4 Nordeste 12 Sudoeste 0 993.8 1.9 54
2019-08-14 23:00:00 25 6 Sudoeste 11 Sur 0 993.1 1.4 46
2019-08-14 22:00:00 26.5 4 Sur 7 Sur 0 992.6 0.9 38
2019-08-14 21:00:00 30.4 6 Oeste 11 Oeste 0 991.9 0 27
2019-08-14 20:00:00 33 7 Oeste 21 Oeste 0 991.7 -0.7 23
2019-08-14 19:00:00 33.6 12 Oeste 27 Oeste 0 991.7 -1.5 22
2019-08-14 18:00:00 33.7 15 Noroeste 27 Noroeste 0 991.9 -2.1 20
2019-08-14 17:00:00 33.6 13 Oeste 22 Sudoeste 0 992.4 -2.6 20
2019-08-14 16:00:00 32.1 10 Sudoeste 20 Oeste 0 993.2 -2.4 23
2019-08-14 15:00:00 30.3 9 Sudoeste 19 Sudoeste 0 994 -2.3 25
2019-08-14 14:00:00 28.3 8 Sudoeste 23 Oeste 0 995 -1.6 29
2019-08-14 13:00:00 26.1 12 Oeste 23 Noroeste 0 995.6 -1.1 33
2019-08-14 12:00:00 23.6 9 Oeste 18 Oeste 0 996.3 -0.6 41
2019-08-14 11:00:00 21.9 10 Oeste 17 Noroeste 0 996.6 0.4 44
2019-08-14 10:00:00 20.4 6 Sudoeste 14 Sudoeste 0 996.7 0.9 50
2019-08-14 09:00:00 18.2 4 Norte 7 Norte 0 996.9 1.4 59
2019-08-14 08:00:00 15.2 4 Norte 8 Norte 0 996.2 0.6 70
2019-08-14 07:00:00 14.5 4 Noroeste 14 Sudoeste 0 995.8 0.2 73
2019-08-14 06:00:00 14.9 7 Oeste 11 Oeste 0 995.5 0.2 71
2019-08-14 05:00:00 15.2 4 Sudoeste 8 Sudoeste 0 995.6 0.5 68
2019-08-14 04:00:00 16 4 Sur 10 Sudoeste 0 995.6 0.8 63
2019-08-14 03:00:00 16.6 3 Sudoeste 9 Oeste 0 995.3 0.5 58
2019-08-14 02:00:00 18.7 8 Sudoeste 21 Oeste 0 995.1 -- 51
2019-08-14 01:00:00 19.8 12 Oeste 20 Oeste 0 994.8 0.9 46
2019-08-14 00:00:00 20.8 11 Oeste -- -- -- 994.8 1.5 42
2019-08-13 23:00:00 20.8 3 Sudoeste 13 Oeste 0 -- -- 45
2019-08-13 22:00:00 23.4 10 Oeste 16 Oeste 0 993.9 1 33
2019-08-13 21:00:00 25.6 8 Oeste 18 Oeste 0 993.3 0.1 28
2019-08-13 20:00:00 28 10 Oeste 22 Noroeste 0 993 -0.8 26
2019-08-13 19:00:00 29 14 Oeste 24 Oeste 0 992.9 -1.6 20
2019-08-13 18:00:00 29 12 Oeste 26 Sudoeste 0 993.2 -2.2 28
2019-08-13 17:00:00 28.3 14 Oeste 27 Oeste 0 993.8 -2.4 30
2019-08-13 16:00:00 27.4 14 Oeste 27 Oeste 0 994.5 -2.3 33
2019-08-13 15:00:00 25.6 13 Oeste 30 Noroeste 0 995.4 -1.9 38
2019-08-13 14:00:00 24.7 11 Oeste 26 Noroeste 0 996.2 -1.4 40
2019-08-13 13:00:00 23.5 12 Sudoeste 26 Sudoeste 0 996.8 -0.8 41
2019-08-13 12:00:00 21.3 10 Oeste 20 Sudoeste 0 997.3 -0.3 49
2019-08-13 11:00:00 20.4 10 Oeste 21 Sudoeste 0 997.6 0.1 50
2019-08-13 10:00:00 18.9 8 Sudoeste 18 Sudoeste 0 997.6 0.8 56
2019-08-13 09:00:00 17.3 7 Sudoeste 11 Sudoeste 0 997.6 0.9 64
2019-08-13 08:00:00 15.7 6 Sudoeste 13 Sudoeste 0 997.5 0.5 70
2019-08-13 07:00:00 15.4 8 Sudoeste 13 Sudoeste 0 996.8 -0.2 70
2019-08-13 06:00:00 15.1 5 Sudoeste 9 Sudoeste 0 996.7 -0.4 70
2019-08-13 05:00:00 15.2 4 Sur 15 Sudoeste 0 997 0.3 68
2019-08-13 04:00:00 15.5 12 Sudoeste 15 Sudoeste 0 997 0.7 67
2019-08-13 03:00:00 16.2 6 Sudoeste 18 Sudoeste 0 997.1 1.4 64
2019-08-13 02:00:00 17.2 9 Sudoeste 17 Sudoeste 0 996.7 1.6 59
2019-08-13 01:00:00 18.4 13 Sudoeste 24 Sudoeste 0 996.3 2.2 52
2019-08-13 00:00:00 19.2 10 Sudoeste 28 Oeste 0 995.7 2.3 49
2019-08-12 23:00:00 20.7 15 Oeste 26 Oeste 0 995.1 2.6 44
2019-08-12 22:00:00 22.4 9 Oeste 25 Oeste 0 994.1 2 41
2019-08-12 21:00:00 24.6 15 Oeste 30 Oeste 0 993.4 1.3 36
2019-08-12 20:00:00 27.8 15 Oeste 29 Noroeste 0 992.5 0.3 25
2019-08-12 19:00:00 29.1 17 Oeste 33 Oeste 0 992.1 -0.5 22
2019-08-12 18:00:00 29.7 18 Oeste 34 Oeste 0 992.1 -0.9 24
2019-08-12 17:00:00 30 17 Oeste 32 Oeste 0 992.2 -1.1 25
2019-08-12 16:00:00 30 19 Oeste 33 Oeste 0 992.6 -1.3 27
2019-08-12 15:00:00 29.1 17 Oeste 30 Oeste 0 993 -1.3 28
2019-08-12 14:00:00 27.5 17 Oeste 33 Oeste 0 993.3 -0.8 37
2019-08-12 13:00:00 26.1 10 Oeste 27 Sudoeste 0 993.9 0.1 43
2019-08-12 12:00:00 24.3 13 Sudoeste 26 Sudoeste 0 994.3 1 48
2019-08-12 11:00:00 22.1 13 Sudoeste 25 Sudoeste 0 994.1 1.5 54
2019-08-12 10:00:00 20.6 13 Sudoeste 26 Sudoeste 0 993.8 1.9 58
2019-08-12 09:00:00 19.3 13 Sudoeste 28 Sudoeste 0 993.3 2 62
2019-08-12 08:00:00 19 13 Sudoeste 27 Sudoeste 0 992.6 1.5 63
2019-08-12 07:00:00 19.2 15 Sudoeste 26 Sudoeste 0 991.9 0.8 63
2019-08-12 06:00:00 20 10 Sudoeste 27 Sudoeste 0 991.3 0.8 61
2019-08-12 05:00:00 20.9 14 Sudoeste 29 Sudoeste 0 991.1 0.6 57
2019-08-12 04:00:00 21.9 13 Sudoeste 22 Sudoeste 0 991.1 0.5 53
2019-08-12 03:00:00 22.7 12 Sudoeste 28 Oeste 0 990.5 0.7 48
2019-08-12 02:00:00 23.7 16 Sudoeste 27 Oeste 0 990.5 1 44
2019-08-12 01:00:00 24.3 9 Sudoeste 23 Oeste 0 990.6 1.8 47
2019-08-12 00:00:00 25.9 13 Oeste 24 Oeste 0 989.8 1.6 42
2019-08-11 23:00:00 27.6 14 Oeste 23 Oeste 0 989.5 1.3 38
2019-08-11 22:00:00 28.3 4 Sur 8 Sur 0 988.8 0.8 46
2019-08-11 21:00:00 30.6 4 Sudoeste 10 Sudoeste 0 988.2 -0.1 40
2019-08-11 20:00:00 32.7 6 Oeste 13 Oeste 0 988.2 -0.7 32
2019-08-11 19:00:00 33.2 8 Oeste 13 Oeste 0 988 -0.9 30
2019-08-11 18:00:00 33.1 7 Oeste 20 Oeste 0 988.3 -1.2 35
2019-08-11 17:00:00 33 11 Oeste 19 Oeste 0 988.9 -1.6 35
2019-08-11 16:00:00 32.4 8 Oeste 20 Noroeste 0 988.9 -2.3 40
2019-08-11 15:00:00 31.3 10 Noroeste 24 Oeste 0 989.5 -1.6 44
2019-08-11 14:00:00 29.7 14 Oeste -- -- -- 990.5 -1.1 52
2019-08-11 13:00:00 29.1 13 Oeste 22 Sudoeste 0 991.2 -0.6 55
2019-08-11 12:00:00 28.5 8 Sudoeste 21 Oeste 0 991.1 -0.3 57
2019-08-11 11:00:00 27.4 6 Noroeste 12 Sudoeste 0 991.6 0.2 58
2019-08-11 10:00:00 25.1 4 Este 13 Norte 0 991.8 0.6 68
2019-08-11 09:00:00 24.6 7 Nordeste 12 Nordeste 0 991.4 0.4 68
2019-08-11 08:00:00 22.5 4 Norte 9 Nordeste 0 991.4 0.3 78
2019-08-11 07:00:00 22 4 Nordeste 10 Nordeste 0 991.2 -0.1 79
2019-08-11 06:00:00 22.1 4 Nordeste 13 Nordeste 0 991 -0.6 81
2019-08-11 05:00:00 22.5 8 Nordeste 15 Nordeste 0 991.1 -0.9 81
2019-08-11 04:00:00 23.2 8 Nordeste 15 Nordeste 0 991.3 -0.7 79
2019-08-11 03:00:00 23.7 9 Nordeste 16 Nordeste 0 991.6 -0.4 80
2019-08-11 02:00:00 24.2 9 Nordeste 16 Nordeste 0 992 0.2 78
2019-08-11 01:00:00 25.1 7 Nordeste 12 Este 0 992 0.7 70
2019-08-11 00:00:00 26.5 3 Oeste 9 Oeste 0 992 1.2 65
2019-08-10 23:00:00 27.3 5 Oeste 9 Sudoeste 0 991.8 1 58
2019-08-10 22:00:00 28.5 6 Sudoeste 11 Sudoeste 0 991.3 0.4 47
2019-08-10 21:00:00 30.7 2 Nordeste 10 Noroeste 0 990.8 -0.4 39
2019-08-10 20:00:00 31.7 5 Norte 17 Noroeste 0 990.8 -1 36
2019-08-10 19:00:00 33.8 8 Noroeste 21 Noroeste 0 990.9 -1.5 28
2019-08-10 18:00:00 34.7 10 Noroeste 19 Noroeste 0 991.2 -1.9 26
2019-08-10 17:00:00 34.4 5 Nordeste 16 Norte 0 991.8 -1.9 27
2019-08-10 16:00:00 34.3 6 Noroeste 15 Oeste 0 992.4 -1.8 27
2019-08-10 15:00:00 33.4 7 Sudoeste 18 Sudoeste 0 993.1 -1.7 30
2019-08-10 14:00:00 32.2 9 Oeste 21 Sudoeste 0 993.7 -1.1 32
2019-08-10 13:00:00 31.4 9 Sudoeste 22 Sudoeste 0 994.2 -0.4 31
2019-08-10 12:00:00 29.4 12 Sudoeste 23 Oeste 0 994.8 0.7 38
2019-08-10 11:00:00 27.6 14 Oeste 22 Oeste 0 994.8 1.4 41
2019-08-10 10:00:00 26.1 13 Sudoeste 21 Oeste 0 994.6 1.9 45
2019-08-10 09:00:00 24.5 13 Oeste 23 Sudoeste 0 994.1 1.9 51
2019-08-10 08:00:00 22.6 9 Oeste 14 Sudoeste 0 993.4 1.5 57
2019-08-10 07:00:00 22.2 7 Oeste 11 Sudoeste 0 992.7 1.4 56
2019-08-10 06:00:00 22.1 8 Sudoeste -- -- -- 992.2 1.1 61
2019-08-10 05:00:00 23.2 10 Oeste 17 Oeste 0 991.9 1.3 57
2019-08-10 04:00:00 23.7 11 Sudoeste 18 Oeste 0 991.3 1.5 56
2019-08-10 03:00:00 24.5 11 Sudoeste 21 Sudoeste 0 991.1 2 54
2019-08-10 02:00:00 25.3 14 Sudoeste 20 Sudoeste 0 990.6 2.4 54
2019-08-10 01:00:00 27.2 13 Oeste 38 Noroeste 0 989.8 2.3 58
2019-08-10 00:00:00 29.6 18 Oeste 30 Oeste 0 989.1 2.3 46
2019-08-09 23:00:00 30.8 6 Oeste 12 Oeste 0 988.2 2.2 38
2019-08-09 22:00:00 32.1 6 Sur 16 Sur 0 987.5 1.5 34
2019-08-09 21:00:00 35.1 7 Sudeste 21 Sudeste 0 986.8 0.4 29
2019-08-09 20:00:00 37.4 5 Este 16 Nordeste 0 986 -0.8 23
2019-08-09 19:00:00 38.8 4 Norte 16 Este 0 986 -1.5 21
2019-08-09 18:00:00 39 9 Norte 14 Norte 0 986.4 -1.7 20
2019-08-09 17:00:00 39.5 5 Oeste 15 Sudoeste 0 986.8 -1.8 20
2019-08-09 16:00:00 39.4 6 Sur 19 Sudoeste 0 987.5 -1.7 20
2019-08-09 15:00:00 38.4 8 Oeste 17 Sudoeste 0 988.1 -1.3 23
2019-08-09 14:00:00 36.9 6 Sudoeste 14 Oeste 0 988.6 -0.9 27
2019-08-09 13:00:00 35.4 6 Sudoeste 13 Oeste 0 989.2 -0.2 31
2019-08-09 12:00:00 33.5 6 Sudoeste 10 Oeste 0 989.4 0.1 33
2019-08-09 11:00:00 31.1 4 Oeste 9 Este 0 989.5 0.4 37
2019-08-09 10:00:00 28.4 5 Este 12 Nordeste 0 989.4 0.7 48
2019-08-09 09:00:00 25.5 5 Norte 11 Nordeste 0 989.3 0.5 60
2019-08-09 08:00:00 23.2 5 Nordeste 12 Nordeste 0 989.1 0.5 66
2019-08-09 07:00:00 22.1 8 Nordeste 12 Nordeste 0 988.7 0.1 68
2019-08-09 06:00:00 22.7 8 Norte 13 Nordeste 0 988.8 0.2 66
2019-08-09 05:00:00 22.9 8 Nordeste 15 Nordeste 0 988.6 -0.1 66
2019-08-09 04:00:00 23.8 9 Nordeste 16 Nordeste 0 988.6 0.1 64
2019-08-09 03:00:00 24.6 8 Nordeste 12 Nordeste 0 988.6 0.2 60
2019-08-09 02:00:00 25.4 8 Nordeste 12 Nordeste 0 988.7 0.6 58
2019-08-09 01:00:00 26.4 8 Nordeste 12 Nordeste 0 988.5 1 56
2019-08-09 00:00:00 28.2 5 Sur 15 Sur 0 988.4 1.7 45
2019-08-08 23:00:00 29.1 5 Sur 12 Sur 0 988.1 1.6 48
2019-08-08 22:00:00 30.5 5 Sur 14 Sur 0 987.5 1 45
2019-08-08 21:00:00 33 7 Este 16 Este 0 986.7 -0.3 33
2019-08-08 20:00:00 35 6 Nordeste 15 Este 0 986.5 -1.1 29
2019-08-08 19:00:00 36.2 5 Noroeste 12 Noroeste 0 986.5 -1.6 25
2019-08-08 18:00:00 36.3 5 Oeste 14 Sudoeste 0 987 -1.7 26
2019-08-08 17:00:00 36.1 5 Sudoeste 21 Noroeste 0 987.6 -1.6 26
2019-08-08 16:00:00 35.3 10 Oeste 20 Oeste 0 988.1 -1.5 27
2019-08-08 15:00:00 34.3 8 Oeste 21 Oeste 0 988.7 -1.3 29
2019-08-08 14:00:00 33.3 10 Oeste 21 Oeste 0 989.2 -0.9 33
2019-08-08 13:00:00 31.9 11 Oeste 19 Sudoeste 0 989.6 -0.3 34
2019-08-08 12:00:00 29.6 13 Sudoeste 22 Sudoeste 0 990 0.2 45
2019-08-08 11:00:00 28 11 Oeste 19 Sudoeste 0 990.1 0.6 54
2019-08-08 10:00:00 26.4 9 Sudoeste 15 Sudoeste 0 989.9 0.8 59
2019-08-08 09:00:00 25.4 3 Este 8 Nordeste 0 989.8 0.9 66
2019-08-08 08:00:00 22.6 5 Nordeste 8 Este 0 989.5 0.6 78
2019-08-08 07:00:00 21.7 5 Nordeste 8 Este 0 989.1 0.4 80
2019-08-08 06:00:00 22.2 5 Nordeste 8 Nordeste 0 988.9 0.2 83
2019-08-08 05:00:00 22.7 0 Calma 5 Noroeste 0 988.9 0.1 80
2019-08-08 04:00:00 23.7 3 Norte 7 Nordeste 0 988.7 0.1 75
2019-08-08 03:00:00 24.3 4 Nordeste 8 Nordeste 0 988.7 0.4 74
2019-08-08 02:00:00 25.1 4 Nordeste 8 Oeste 0 988.8 0.6 73
2019-08-08 01:00:00 26 3 Oeste 12 Oeste 0 988.6 1.2 74
2019-08-08 00:00:00 26.2 5 Oeste 10 Oeste 0 988.3 1.5 70
2019-08-07 23:00:00 26.1 6 Sudoeste 10 Sur 0 988.2 0.8 64
2019-08-07 22:00:00 27.6 2 Sur 10 Este 0 987.4 0 56
2019-08-07 21:00:00 29.6 6 Este 10 Nordeste 0 986.8 0 49
2019-08-07 20:00:00 30.7 5 Oeste 8 Oeste 0 987.4 -0.2 44
2019-08-07 19:00:00 30.8 6 Oeste 17 Oeste 0 987.4 -0.1 44
2019-08-07 18:00:00 31.4 8 Noroeste 20 Oeste 0 986.8 -0.6 41
2019-08-07 17:00:00 31.1 11 Sudoeste 21 Sudoeste 0 987.6 -0.3 44
2019-08-07 16:00:00 30.7 10 Oeste 22 Sudoeste 0 987.5 -0.7 45
2019-08-07 15:00:00 31 13 Sudoeste 22 Sudoeste 0 987.4 -0.8 45
2019-08-07 14:00:00 31.3 14 Sudoeste 24 Oeste 0 987.9 -0.5 46
2019-08-07 13:00:00 30 9 Oeste 21 Sudoeste 0 988.2 0.4 52
2019-08-07 12:00:00 28.6 10 Sudoeste 17 Sur 0 988.2 0.8 56
2019-08-07 11:00:00 27.8 11 Sudoeste 18 Oeste 0 988.4 1.6 54
2019-08-07 10:00:00 26.5 9 Sur 17 Sur 0 987.8 1.7 57
2019-08-07 09:00:00 24.6 5 Sudeste 11 Oeste 0 987.4 1.6 65
2019-08-07 08:00:00 23.8 5 Sudoeste 15 Nordeste 0 986.8 0.4 74
2019-08-07 07:00:00 23.4 8 Nordeste 15 Este 0 986.1 0.4 80
2019-08-07 06:00:00 24 8 Nordeste 13 Nordeste 0 985.8 0.2 78
2019-08-07 05:00:00 24.3 7 Nordeste 18 Nordeste 0 986.4 0.8 76
2019-08-07 04:00:00 24 9 Nordeste 15 Nordeste 0 985.7 0 75
2019-08-07 03:00:00 25 6 Nordeste 15 Este 0 985.6 -0.3 73
2019-08-07 02:00:00 25.6 4 Nordeste 15 Nordeste 0 985.6 -0.1 72
2019-08-07 01:00:00 26.2 7 Nordeste 11 Nordeste 0 985.7 0.5 72
2019-08-07 00:00:00 27 7 Nordeste 12 Nordeste 0 985.9 0.9 70
2019-08-06 23:00:00 28.4 7 Norte 9 Norte 0 985.7 0.7 63
2019-08-06 22:00:00 29.9 2 Oeste 10 Sudoeste 0 985.2 0.2 57
2019-08-06 21:00:00 31.7 5 Sur 16 Sudoeste 0 985 -- 51
2019-08-06 20:00:00 34.5 11 Sur 19 Sudoeste 0 985 -1 44
2019-08-06 19:00:00 37.5 4 Sudeste -- -- -- 985 -1.9 23
2019-08-06 18:00:00 -- -- -- -- -- -- -- -- --
2019-08-06 17:00:00 36.3 7 Sudoeste 18 Oeste 0 986 -2.2 31
2019-08-06 16:00:00 36.6 7 Sudoeste 19 Sudoeste 0 986.9 -2.3 30
2019-08-06 15:00:00 35.6 9 Sur 22 Sur 0 987.3 -2.4 38
2019-08-06 14:00:00 33 6 Sudoeste 18 Sudoeste 0 988.2 -1.7 46
2019-08-06 13:00:00 32 9 Sudoeste 21 Sudoeste 0 989.2 -0.6 48
2019-08-06 12:00:00 30 8 Sudoeste 21 Sudoeste 0 989.7 0.1 53
2019-08-06 11:00:00 28.3 7 Sudoeste 12 Sudoeste 0 989.9 0.4 56
2019-08-06 10:00:00 27 4 Norte 8 Norte 0 989.8 0.3 53
2019-08-06 09:00:00 25.6 2 Norte 7 Nordeste 0 989.6 0 51
2019-08-06 08:00:00 22.7 5 Norte 8 Nordeste 0 989.5 -0.1 57
2019-08-06 07:00:00 21.7 5 Norte 10 Nordeste 0 989.5 0 60
2019-08-06 06:00:00 22 6 Nordeste 13 Nordeste 0 989.6 0.2 58
2019-08-06 05:00:00 22.2 6 Nordeste 10 Nordeste 0 989.6 0 57
2019-08-06 04:00:00 22.7 8 Nordeste 12 Nordeste 0 989.5 0.1 55
2019-08-06 03:00:00 23.1 9 Nordeste 16 Este 0 989.4 0.2 56
2019-08-06 02:00:00 23.9 7 Nordeste 13 Nordeste 0 989.6 0.5 55
2019-08-06 01:00:00 24.8 6 Nordeste 14 Este 0 989.4 1 55
2019-08-06 00:00:00 25.7 7 Nordeste 14 Este 0 989.2 1.4 54
2019-08-05 23:00:00 27.4 7 Nordeste 15 Norte 0 989.1 1.6 50
2019-08-05 22:00:00 30 5 Norte 15 Sur 0 988.4 0.9 43
2019-08-05 21:00:00 32.4 6 Sur 13 Sur 0 987.8 0 32
2019-08-05 20:00:00 34.9 4 Sur 21 Sur 0 987.5 -0.9 31
2019-08-05 19:00:00 36.4 9 Sur 20 Sur 0 987.5 -1.5 29
2019-08-05 18:00:00 36.9 6 Sur 14 Oeste 0 987.8 -1.9 33
2019-08-05 17:00:00 36.8 7 Sudoeste 14 Oeste 0 988.4 -2 34
2019-08-05 16:00:00 35.9 6 Sur 15 Sur 0 989 -2.2 35
2019-08-05 15:00:00 34.5 7 Oeste 14 Oeste 0 989.7 -2.1 37
2019-08-05 14:00:00 33.1 5 Este 16 Sur 0 990.4 -1.6 41
2019-08-05 13:00:00 31.4 8 Sudoeste 16 Sudoeste 0 991.2 -0.9 46
2019-08-05 12:00:00 29.6 7 Sudoeste 16 Oeste 0 991.8 -0.4 50
2019-08-05 11:00:00 27.9 9 Sudoeste 15 Sur 0 992 -0.1 56
2019-08-05 10:00:00 27 7 Sur 14 Sur 0 992.1 0.6 61
2019-08-05 09:00:00 24.7 3 Nordeste 8 Nordeste 0 992.2 1.1 53
2019-08-05 08:00:00 22.1 5 Nordeste 10 Este 0 992.1 1 59
2019-08-05 07:00:00 21.3 8 Nordeste 11 Nordeste 0 991.5 0.3 62
2019-08-05 06:00:00 21.7 7 Nordeste 13 Nordeste 0 991.1 0.1 60
2019-08-05 05:00:00 22.3 6 Nordeste 13 Nordeste 0 991.1 0 59
2019-08-05 04:00:00 23 10 Nordeste 17 Nordeste 0 991.2 0.2 58
2019-08-05 03:00:00 23 9 Nordeste 17 Nordeste 0 991 0.2 61
2019-08-05 02:00:00 23.8 9 Nordeste 16 Nordeste 0 991.1 0.7 61
2019-08-05 01:00:00 25.1 6 Nordeste 11 Este 0 991 1.5 55
2019-08-05 00:00:00 25.7 6 Nordeste 10 Nordeste 0 990.8 2.1 57
2019-08-04 23:00:00 27.1 6 Norte 12 Norte 0 990.4 1.8 53
2019-08-04 22:00:00 28.8 6 Sur 19 Sur 0 989.5 1.3 45
2019-08-04 21:00:00 30.5 10 Sur 21 Sur 0 988.7 0.7 41
2019-08-04 20:00:00 33.4 12 Sur 24 Sur 0 988.6 0.4 35
2019-08-04 19:00:00 35.1 14 Sur 31 Sudoeste 0 988.2 -0.5 33
2019-08-04 18:00:00 36.2 16 Sudoeste 29 Sur 0 988 -1.3 32
2019-08-04 17:00:00 36.8 13 Sudoeste 28 Sur 0 988.2 -1.7 34
2019-08-04 16:00:00 36.5 8 Sudoeste 17 Sudoeste 0 988.7 -1.8 34
2019-08-04 15:00:00 35.2 8 Oeste 17 Sudoeste 0 989.3 -1.5 34
2019-08-04 14:00:00 33.8 7 Sudoeste 14 Sudoeste 0 989.9 -1.3 34
2019-08-04 13:00:00 32.3 6 Sudoeste 12 Sudoeste 0 990.5 -0.8 35
2019-08-04 12:00:00 31 5 Sudoeste 8 Nordeste 0 990.8 -0.4 37
2019-08-04 11:00:00 28.9 5 Norte 9 Este 0 991.2 0.3 45
2019-08-04 10:00:00 26.5 8 Nordeste 16 Nordeste 0 991.3 0.7 53
2019-08-04 09:00:00 24.2 10 Nordeste 16 Nordeste 0 991.2 0.9 58
2019-08-04 08:00:00 21.7 6 Norte 11 Norte 0 990.9 0.5 65
2019-08-04 07:00:00 20.7 8 Nordeste 13 Nordeste 0 990.6 0.3 68
2019-08-04 06:00:00 20.9 6 Nordeste 12 Nordeste 0 990.3 0 67
2019-08-04 05:00:00 21.2 8 Nordeste 12 Nordeste 0 990.4 0.2 65
2019-08-04 04:00:00 21.6 8 Nordeste 13 Nordeste 0 990.3 0.1 65
2019-08-04 03:00:00 22 6 Norte 13 Nordeste 0 990.3 0.4 64
2019-08-04 02:00:00 22.7 8 Nordeste 14 Nordeste 0 990.2 0.8 63
2019-08-04 01:00:00 24.1 7 Nordeste 12 Norte 0 990.2 1.5 58
2019-08-04 00:00:00 25.1 5 Nordeste 11 Nordeste 0 989.9 2.1 56
2019-08-03 23:00:00 26.5 4 Este 17 Sur 0 989.4 1.5 46
2019-08-03 22:00:00 27.5 9 Sur 32 Sudoeste 0 988.7 1.1 45
2019-08-03 21:00:00 30 9 Sur 24 Sur 0 987.8 0.1 44
2019-08-03 20:00:00 32.8 14 Sur 27 Sur 0 987.9 -0.4 37
2019-08-03 19:00:00 34.6 16 Sur 32 Sur 0 987.6 -1.4 33
2019-08-03 18:00:00 36.2 15 Sur 29 Sur 0 987.7 -2.1 31
2019-08-03 17:00:00 37.3 4 Sudoeste 18 Sudoeste 0 988.3 -2.3 28
2019-08-03 16:00:00 36.3 6 Sudeste 13 Este 0 989 -2.4 26
2019-08-03 15:00:00 34.8 5 Nordeste 15 Noroeste 0 989.8 -2.1 28
2019-08-03 14:00:00 33.5 6 Nordeste 14 Este 0 990.6 -1.6 29
2019-08-03 13:00:00 32.1 4 Este 12 Este 0 991.4 -1 31
2019-08-03 12:00:00 29.9 6 Nordeste 11 Este 0 991.9 -0.6 36
2019-08-03 11:00:00 27.9 2 Este 12 Nordeste 0 992.2 0.1 41
2019-08-03 10:00:00 25.4 4 Nordeste 11 Nordeste 0 992.4 0.4 48
2019-08-03 09:00:00 22.9 6 Nordeste 11 Nordeste 0 992.5 0.7 56
2019-08-03 08:00:00 20.8 5 Nordeste 10 Norte 0 992.1 0.2 65
2019-08-03 07:00:00 19.7 6 Nordeste 14 Nordeste 0 992 0 67
2019-08-03 06:00:00 19.9 6 Norte 10 Norte 0 991.8 -0.4 67
2019-08-03 05:00:00 20.2 4 Nordeste 10 Norte 0 991.9 -0.3 66
2019-08-03 04:00:00 20.8 7 Nordeste 11 Nordeste 0 992 0.1 65
2019-08-03 03:00:00 21.3 8 Nordeste 16 Nordeste 0 992.2 0.7 64
2019-08-03 02:00:00 21.9 8 Nordeste 14 Nordeste 0 992.2 1.3 62
2019-08-03 01:00:00 22.8 8 Nordeste 14 Nordeste 0 991.9 1.8 59
2019-08-03 00:00:00 24 6 Nordeste 17 Nordeste 0 991.5 1.9 56
2019-08-02 23:00:00 25.4 2 Norte 10 Sudoeste 0 990.9 1.6 48
2019-08-02 22:00:00 27.2 6 Sudoeste 19 Sur 0 990.1 1.1 42
2019-08-02 21:00:00 29.5 8 Sur 27 Sur 0 989.6 0 37
2019-08-02 20:00:00 32.7 10 Sur 27 Sur 0 989.3 -0.8 32
2019-08-02 19:00:00 34.9 10 Oeste 17 Sudoeste 0 989 -1.7 29
2019-08-02 18:00:00 35 9 Sudoeste 18 Sudoeste 0 989.6 -1.5 29
2019-08-02 17:00:00 34.3 10 Sudoeste 21 Sudoeste 0 990.1 -1.5 32
2019-08-02 16:00:00 33.3 12 Sudoeste 21 Sudoeste 0 990.7 -1.4 35
2019-08-02 15:00:00 32.1 10 Sudoeste 21 Oeste 0 991.1 -1.3 36
2019-08-02 14:00:00 30.4 11 Sudoeste 22 Oeste 0 991.6 -1.1 40
2019-08-02 13:00:00 29.1 10 Oeste 19 Sudoeste 0 992.1 -0.5 46
2019-08-02 12:00:00 27.6 10 Oeste 18 Sudoeste 0 992.4 -0.1 51
2019-08-02 11:00:00 25.2 9 Oeste 19 Sudoeste 0 992.7 0.6 60
2019-08-02 10:00:00 23.5 7 Sudoeste 17 Sudoeste 0 992.6 0.8 65
2019-08-02 09:00:00 21.6 11 Sudoeste 16 Sudoeste 0 992.5 1.1 70
2019-08-02 08:00:00 19.8 6 Sudoeste 9 Sudoeste 0 992.1 0.7 73
2019-08-02 07:00:00 18.5 3 Sur 7 Norte 0 991.8 0.9 73
2019-08-02 06:00:00 19 3 Norte 5 Norte 0 991.4 0.5 68
2019-08-02 05:00:00 20.5 4 Oeste 10 Noroeste 0 991.4 0.4 60
2019-08-02 04:00:00 21.5 4 Nordeste 8 Norte 0 990.9 0.5 57
2019-08-02 03:00:00 22.3 7 Nordeste 10 Nordeste 0 990.9 0.9 54
2019-08-02 02:00:00 23 3 Norte 7 Norte 0 991 1.5 52
2019-08-02 01:00:00 23.6 4 Nordeste 9 Oeste 0 990.4 2 50
2019-08-02 00:00:00 24.5 2 Noroeste 8 Sudoeste 0 990 2.5 44
2019-08-01 23:00:00 25.8 5 Oeste 12 Sudoeste 0 989.5 2.6 42
2019-08-01 22:00:00 27.3 8 Oeste 12 Sur 0 988.4 1.4 39
2019-08-01 21:00:00 30.1 5 Sudeste 23 Sur 0 987.5 0.1 32
2019-08-01 20:00:00 32.9 7 Sudoeste 16 Sudoeste 0 986.9 -1 30
2019-08-01 19:00:00 34.2 5 Sudoeste 16 Oeste 0 987 -1.5 28
2019-08-01 18:00:00 34.8 5 Sur 14 Sudoeste 0 987.4 -1.4 27
2019-08-01 17:00:00 34 5 Este 17 Oeste 0 987.9 -1.8 27
2019-08-01 16:00:00 33.6 6 Noroeste 19 Este 0 988.5 -1.8 27
2019-08-01 15:00:00 32.6 6 Sudeste 15 Este 0 988.8 -2.1 28
2019-08-01 14:00:00 32 6 Nordeste 17 Este 0 989.7 -1.3 30
2019-08-01 13:00:00 30.4 9 Nordeste 16 Nordeste 0 990.3 -1 33
2019-08-01 12:00:00 29.3 6 Nordeste 12 Este 0 990.9 -0.1 38
2019-08-01 11:00:00 27.1 5 Oeste 9 Oeste 0 991 0.5 47
2019-08-01 10:00:00 25 5 Sudoeste 10 Oeste 0 991.3 0.9 61
2019-08-01 09:00:00 22.5 3 Sudoeste 10 Sudoeste 0 991 0.4 71
2019-08-01 08:00:00 20.3 7 Sudoeste 13 Este 0 990.5 -0.7 82
2019-08-01 07:00:00 19.3 3 Nordeste 10 Este 0 990.4 -1.1 85
2019-08-01 06:00:00 19.4 7 Nordeste 13 Nordeste 0 990.6 -1.3 85
2019-08-01 05:00:00 19.8 7 Norte 11 Nordeste 0 991.2 -0.8 84
2019-08-01 04:00:00 20.1 8 Nordeste 12 Nordeste 0 991.5 -0.8 83
2019-08-01 03:00:00 20.9 6 Nordeste 10 Nordeste 0 991.9 -0.7 79
2019-08-01 02:00:00 21.6 6 Norte 10 Norte 0 992 0.3 77
2019-08-01 01:00:00 22.6 6 Nordeste 12 Nordeste 0 992.3 0.9 73
2019-08-01 00:00:00 23.6 4 Oeste 12 Oeste 0 992.6 1.4 66
2019-07-31 23:00:00 24.4 4 Sur 17 Sur 0 991.7 0.8 64
2019-07-31 22:00:00 25.3 8 Sur 24 Sur 0 991.4 0.5 60
2019-07-31 21:00:00 27.1 11 Sur 21 Sur 0 991.2 -0.3 53
2019-07-31 20:00:00 29.7 11 Sur 19 Sur 0 990.9 -1 45
2019-07-31 19:00:00 31.5 6 Sur 21 Sur 0 990.9 -1.7 39
2019-07-31 18:00:00 31.8 6 Sur 19 Sur 0 991.5 -2 34
2019-07-31 17:00:00 31.5 4 Sudoeste 14 Oeste 0 991.9 -2.3 34
2019-07-31 16:00:00 30.6 5 Oeste 14 Oeste 0 992.6 -2.6 34
2019-07-31 15:00:00 29.2 6 Sur 14 Sudoeste 0 993.5 -2.3 35
2019-07-31 14:00:00 27.3 6 Noroeste 16 Oeste 0 994.2 -1.5 34
2019-07-31 13:00:00 25.4 9 Sudoeste 17 Sudoeste 0 995.2 -1.2 39
2019-07-31 12:00:00 23.8 5 Sudeste 15 Norte 0 995.8 -0.7 41
2019-07-31 11:00:00 22.1 4 Noroeste 12 Norte 0 995.7 -0.7 45
2019-07-31 10:00:00 20.7 5 Sur 10 Sudeste 0 996.4 0.4 52
2019-07-31 09:00:00 18.4 4 Oeste 11 Sudoeste 0 996.5 0.9 59
2019-07-31 08:00:00 16.8 6 Sur 12 Sudoeste 0 996.4 1.2 63
2019-07-31 07:00:00 16.1 4 Sudoeste 9 Sur 0 996 1.3 65
2019-07-31 06:00:00 17.2 4 Sudoeste 8 Sudoeste 0 995.6 0.8 62
2019-07-31 05:00:00 17.7 5 Oeste 10 Sudoeste 0 995.2 0.6 60
2019-07-31 04:00:00 18.6 8 Sudoeste 21 Oeste 0 994.7 0.4 56
2019-07-31 03:00:00 19.5 8 Sudoeste 24 Sudoeste 0 994.8 0.9 54
2019-07-31 02:00:00 20.3 11 Sudoeste 22 Oeste 0 994.6 1.7 49
2019-07-31 01:00:00 21.2 8 Sudoeste 17 Oeste 0 994.3 2.2 46
2019-07-31 00:00:00 22.5 8 Sudoeste 17 Oeste 0 993.9 2.7 40
2019-07-30 23:00:00 23.5 6 Sudoeste 12 Oeste 0 992.9 2.3 37
2019-07-30 22:00:00 25.3 6 Oeste 16 Oeste 0 992.1 1.7 33
2019-07-30 21:00:00 27.6 10 Oeste 26 Noroeste 0 991.2 0.6 30
2019-07-30 20:00:00 30.6 13 Oeste 20 Noroeste 0 990.6 -0.3 26
2019-07-30 19:00:00 31.7 12 Oeste 20 Oeste 0 990.4 -0.9 24
2019-07-30 18:00:00 31.7 11 Oeste 24 Oeste 0 990.6 -1.4 24
2019-07-30 17:00:00 31.7 10 Oeste 24 Noroeste 0 990.9 -1.7 26
2019-07-30 16:00:00 31.1 11 Oeste 25 Oeste 0 991.3 -1.8 28
2019-07-30 15:00:00 29.8 10 Oeste 28 Oeste 0 992 -1.4 33
2019-07-30 14:00:00 28.5 12 Sudoeste 26 Oeste 0 992.6 -0.7 38
2019-07-30 13:00:00 27.1 11 Oeste 23 Noroeste 0 993.1 -0.1 40
2019-07-30 12:00:00 25 11 Sudoeste 25 Sudoeste 0 993.4 0.7 46
2019-07-30 11:00:00 23.3 13 Sudoeste 24 Sudoeste 0 993.3 1.4 50
2019-07-30 10:00:00 21.5 12 Sudoeste 19 Sudoeste 0 993.2 1.9 56
2019-07-30 09:00:00 20.3 12 Sudoeste 23 Sudoeste 0 992.7 2.4 62
2019-07-30 08:00:00 18.9 10 Sudoeste 16 Sur 0 991.9 2.5 69
2019-07-30 07:00:00 18.7 6 Sur 24 Sudoeste 0 991.3 2.7 68
2019-07-30 06:00:00 19.6 13 Sudoeste 23 Sudoeste 0 990.3 1.7 66
2019-07-30 05:00:00 20.7 12 Sudoeste 24 Sur 0 989.4 1.6 66
2019-07-30 04:00:00 22 2 Este 6 Norte 0 988.6 0.9 67
2019-07-30 03:00:00 22.7 4 Norte 17 Nordeste 0 988.6 1.4 63
2019-07-30 02:00:00 23.5 11 Nordeste 17 Nordeste 0 987.8 1.2 62
2019-07-30 01:00:00 23.8 7 Norte 15 Nordeste 0 987.7 2 62
2019-07-30 00:00:00 26 0 Calma 18 Sur 0 987.2 1.8 46
2019-07-29 23:00:00 27 6 Sur 14 Sur 0 986.6 1.8 46
2019-07-29 22:00:00 28.6 8 Sur 17 Sur 0 985.7 0.8 37
2019-07-29 21:00:00 31.3 9 Sur 16 Sur 0 985.4 0 30
2019-07-29 20:00:00 34 6 Noroeste 14 Norte 0 984.8 -0.8 20
2019-07-29 19:00:00 35 5 Noroeste 15 Sudoeste 0 984.9 -1.4 19
2019-07-29 18:00:00 35.1 9 Oeste 16 Sudoeste 0 985.4 -1.4 17
2019-07-29 17:00:00 34.5 7 Norte 15 Noroeste 0 985.6 -1.7 16
2019-07-29 16:00:00 33.2 9 Oeste 16 Oeste 0 986.3 -1.5 23
2019-07-29 15:00:00 32.2 5 Oeste 15 Oeste 0 986.8 -1.2 28
2019-07-29 14:00:00 30.6 7 Oeste 18 Sudoeste 0 987.3 -0.9 31
2019-07-29 13:00:00 29.4 6 Sudoeste 17 Sudoeste 0 987.8 -0.7 32
2019-07-29 12:00:00 27.3 4 Noroeste 10 Sudoeste 0 988 -0.3 38
2019-07-29 11:00:00 25.1 4 Sur 8 Sur 0 988.2 0.1 47
2019-07-29 10:00:00 22.6 4 Este 11 Este 0 988.5 0.7 55
2019-07-29 09:00:00 20 6 Nordeste 10 Nordeste 0 988.3 0.8 65
2019-07-29 08:00:00 17.5 5 Nordeste 9 Nordeste 0 988.1 0.6 67
2019-07-29 07:00:00 15.8 4 Nordeste 10 Norte 0 987.8 0.2 73
2019-07-29 06:00:00 16.5 7 Nordeste 10 Nordeste 0 987.5 -0.2 70
2019-07-29 05:00:00 17.1 8 Nordeste 12 Nordeste 0 987.5 0 68
2019-07-29 04:00:00 17.1 8 Norte 13 Nordeste 0 987.6 0.2 66
2019-07-29 03:00:00 17.7 8 Nordeste 12 Norte 0 987.7 0.6 65
2019-07-29 02:00:00 18.6 4 Nordeste 6 Nordeste 0 987.5 0.5 59
2019-07-29 01:00:00 18.9 3 Sur 7 Sur 0 987.4 1.1 56
2019-07-29 00:00:00 19.7 4 Oeste 9 Oeste 0 987.1 1.2 53
2019-07-28 23:00:00 22.1 6 Sur 11 Oeste 0 987 1.6 44
2019-07-28 22:00:00 24.4 6 Oeste -- -- -- 986.3 1.3 36
2019-07-28 21:00:00 26.8 5 Oeste 21 Oeste 0 985.9 0.9 33
2019-07-28 20:00:00 29.4 13 Oeste 25 Oeste 0 985.4 0 27
2019-07-28 19:00:00 30.1 13 Oeste 26 Oeste 0 985 -1 26
2019-07-28 18:00:00 30.3 18 Noroeste 28 Oeste 0 985 -1.3 24
2019-07-28 17:00:00 30.2 15 Oeste 31 Noroeste 0 985.4 -1.3 27
2019-07-28 16:00:00 29.3 18 Oeste 31 Oeste 0 986 -1.2 28
2019-07-28 15:00:00 28.5 13 Sudoeste 31 Sudoeste 0 986.3 -1.1 29
2019-07-28 14:00:00 27.3 12 Oeste 28 Sudoeste 0 986.7 -0.9 32
2019-07-28 13:00:00 25.9 12 Sudoeste 29 Oeste 0 987.2 -0.1 38
2019-07-28 12:00:00 24.4 12 Oeste 29 Oeste 0 987.4 0.3 43
2019-07-28 11:00:00 22.7 12 Oeste 26 Oeste 0 987.6 0.7 52
2019-07-28 10:00:00 20.6 13 Oeste 36 Sudoeste 0 987.3 0.8 57
2019-07-28 09:00:00 18.7 18 Oeste 32 Oeste 0 987.1 1.1 62
2019-07-28 08:00:00 16.4 9 Sudoeste 19 Sudoeste 0 986.9 1.1 72
2019-07-28 07:00:00 15.2 9 Sudoeste 21 Sudoeste 0 986.5 1.1 75
2019-07-28 06:00:00 15.9 9 Sudoeste 34 Oeste 0 986 1 71
2019-07-28 05:00:00 16.4 15 Sudoeste 37 Sudoeste 0 985.8 1 70
2019-07-28 04:00:00 16.6 15 Sudoeste 34 Oeste 0 985.4 1.4 69
2019-07-28 03:00:00 17.3 19 Sudoeste 36 Oeste 0 985 1.4 63
2019-07-28 02:00:00 17.9 15 Sudoeste 34 Sudoeste 0 984.8 1.5 63
2019-07-28 01:00:00 18.5 10 Sudoeste 37 Oeste 0 984 1.6 63
2019-07-28 00:00:00 19.3 21 Oeste 43 Oeste 0 983.6 2.3 61
2019-07-27 23:00:00 20.7 24 Oeste 42 Oeste 0 983.3 2.8 57
2019-07-26 12:00:00 28.3 16 Oeste 25 Oeste 0 988.3 0.2 58
2019-07-26 11:00:00 29.5 8 Sudoeste 18 Sudoeste 0 988 0.2 51
2019-07-26 10:00:00 29.5 5 Sudoeste 15 Nordeste 0 988.4 0.4 40
2019-07-26 09:00:00 26.2 8 Nordeste 18 Nordeste 0 988.1 0 48
2019-07-26 08:00:00 24.2 10 Nordeste 18 Nordeste 0 987.8 -0.6 52
2019-07-26 07:00:00 24.1 10 Nordeste 21 Este 0 988 -0.6 51
2019-07-26 06:00:00 23.9 10 Nordeste 19 Nordeste 0 988.1 -0.9 52
2019-07-26 05:00:00 23.6 8 Nordeste 19 Nordeste 0 988.4 -0.9 56
2019-07-26 04:00:00 23.5 10 Nordeste 18 Nordeste 0 988.6 -0.8 54
2019-07-26 03:00:00 24.1 10 Nordeste 16 Nordeste 0 989 -0.6 51
2019-07-26 02:00:00 24.6 8 Nordeste 15 Nordeste 0 989.3 -0.2 51
2019-07-26 01:00:00 24.9 7 Nordeste 16 Nordeste 0 989.4 0.2 52
2019-07-26 00:00:00 26.4 7 Nordeste 15 Nordeste 0 989.6 1.4 49